Skip Navigation Links Skip Navigation Links

Current Weather

Virginia Tech, Blacksburg, Va.

For information only: do not use for flight planning or navigation.
Latest weather
Observation time Thursday, August 16, 2018 2:15 AM EDT
Local time Thursday, August 16, 2018 2:29 AM EDT
Flight conditions Visual Meteorological Conditions
Winds
Wind speed calm
Visibility 10 mi.
Sky condition
Ceiling unlimited
Sky clear
Temperature 66°F
Dewpoint 65°F
Altimeter 30.22 in.Hg
Derived measurements
Relative humidity 98%
Density altitude 2527 ft.
Remarks
Fully automated report.
Automated weather observing station with precipitation discriminator.
METAR KBCB 160615Z AUTO 00000KT 10SM CLR 19/19 A3022 RMK AO2 T01880185

Settings

Location code

InnerDrive.Weather 4.0.6770.0 Release CLR 4.0.30319.42000
Copyright ©2018 Inner Drive Technology. All rights reserved. Portions Copyright ©1986-2018 David Braverman.

Find weather

Site navigation


Skip Navigation Links

Place info

Page info

PayPal - The safer, easier way to pay online!

Return home.

Copyright ©2018 Inner Drive Technology. Purveyors of fine, hand-crafted computer software. Page printed 2018-08-16T06:29:24 UTC.